sensor_id;sensor_type;location;lat;lon;timestamp;P1;durP1;ratioP1;P2;durP2;ratioP2
41875;SDS011;27555;50.808;4.402;2022-12-10T00:01:36;47.92;;;18.80;;
41875;SDS011;27555;50.808;4.402;2022-12-10T00:04:05;50.40;;;18.88;;
41875;SDS011;27555;50.808;4.402;2022-12-10T00:06:32;51.28;;;19.92;;
41875;SDS011;27555;50.808;4.402;2022-12-10T00:09:02;53.70;;;18.60;;
41875;SDS011;27555;50.808;4.402;2022-12-10T00:11:31;49.33;;;19.02;;
41875;SDS011;27555;50.808;4.402;2022-12-10T00:13:58;49.40;;;18.80;;
41875;SDS011;27555;50.808;4.402;2022-12-10T00:16:25;48.08;;;17.58;;
41875;SDS011;27555;50.808;4.402;2022-12-10T00:18:56;44.72;;;18.48;;
41875;SDS011;27555;50.808;4.402;2022-12-10T00:21:23;42.47;;;17.08;;
41875;SDS011;27555;50.808;4.402;2022-12-10T00:23:58;40.42;;;16.77;;
41875;SDS011;27555;50.808;4.402;2022-12-10T00:29:00;44.65;;;17.67;;
41875;SDS011;27555;50.808;4.402;2022-12-10T00:31:28;43.63;;;16.85;;
41875;SDS011;27555;50.808;4.402;2022-12-10T00:33:59;47.17;;;16.00;;
41875;SDS011;27555;50.808;4.402;2022-12-10T00:36:32;42.17;;;16.65;;
41875;SDS011;27555;50.808;4.402;2022-12-10T00:38:59;46.20;;;16.88;;
41875;SDS011;27555;50.808;4.402;2022-12-10T00:41:28;43.97;;;17.52;;
41875;SDS011;27555;50.808;4.402;2022-12-10T00:44:16;41.75;;;15.85;;
41875;SDS011;27555;50.808;4.402;2022-12-10T00:46:44;45.45;;;18.60;;
41875;SDS011;27555;50.808;4.402;2022-12-10T00:49:31;38.08;;;16.02;;
41875;SDS011;27555;50.808;4.402;2022-12-10T00:51:59;40.25;;;17.35;;
41875;SDS011;27555;50.808;4.402;2022-12-10T00:54:25;45.55;;;16.40;;
41875;SDS011;27555;50.808;4.402;2022-12-10T00:56:51;39.60;;;16.83;;
41875;SDS011;27555;50.808;4.402;2022-12-10T01:01:45;47.13;;;17.08;;
41875;SDS011;27555;50.808;4.402;2022-12-10T01:04:23;40.55;;;16.23;;
41875;SDS011;27555;50.808;4.402;2022-12-10T01:06:50;42.67;;;16.55;;
41875;SDS011;27555;50.808;4.402;2022-12-10T01:09:21;34.15;;;14.52;;
41875;SDS011;27555;50.808;4.402;2022-12-10T01:11:52;34.15;;;15.68;;
41875;SDS011;27555;50.808;4.402;2022-12-10T01:14:25;39.55;;;15.93;;
41875;SDS011;27555;50.808;4.402;2022-12-10T01:16:54;41.70;;;18.23;;
41875;SDS011;27555;50.808;4.402;2022-12-10T01:19:29;47.72;;;17.83;;
41875;SDS011;27555;50.808;4.402;2022-12-10T01:22:19;43.40;;;17.60;;
41875;SDS011;27555;50.808;4.402;2022-12-10T01:24:58;43.42;;;16.92;;
41875;SDS011;27555;50.808;4.402;2022-12-10T01:29:55;43.53;;;17.80;;
41875;SDS011;27555;50.808;4.402;2022-12-10T01:32:21;45.42;;;18.65;;
41875;SDS011;27555;50.808;4.402;2022-12-10T01:34:49;44.05;;;17.10;;
41875;SDS011;27555;50.808;4.402;2022-12-10T01:37:16;42.90;;;16.08;;
41875;SDS011;27555;50.808;4.402;2022-12-10T01:39:51;39.30;;;15.88;;
41875;SDS011;27555;50.808;4.402;2022-12-10T01:42:38;49.28;;;18.52;;
41875;SDS011;27555;50.808;4.402;2022-12-10T01:45:10;46.35;;;18.52;;
41875;SDS011;27555;50.808;4.402;2022-12-10T01:47:37;41.33;;;17.75;;
41875;SDS011;27555;50.808;4.402;2022-12-10T01:50:07;44.35;;;18.67;;
41875;SDS011;27555;50.808;4.402;2022-12-10T01:52:38;47.28;;;18.38;;
41875;SDS011;27555;50.808;4.402;2022-12-10T01:58:26;40.22;;;17.10;;
41875;SDS011;27555;50.808;4.402;2022-12-10T02:00:58;49.28;;;19.40;;
41875;SDS011;27555;50.808;4.402;2022-12-10T02:06:38;53.17;;;21.08;;
41875;SDS011;27555;50.808;4.402;2022-12-10T02:09:35;43.95;;;18.77;;
41875;SDS011;27555;50.808;4.402;2022-12-10T02:12:32;48.40;;;18.23;;
41875;SDS011;27555;50.808;4.402;2022-12-10T02:15:40;51.15;;;18.40;;
41875;SDS011;27555;50.808;4.402;2022-12-10T02:18:29;50.90;;;19.02;;
41875;SDS011;27555;50.808;4.402;2022-12-10T02:21:29;44.78;;;18.48;;
41875;SDS011;27555;50.808;4.402;2022-12-10T02:24:06;45.92;;;19.00;;
41875;SDS011;27555;50.808;4.402;2022-12-10T02:27:00;51.17;;;20.20;;
41875;SDS011;27555;50.808;4.402;2022-12-10T02:29:39;42.88;;;17.98;;
41875;SDS011;27555;50.808;4.402;2022-12-10T02:32:11;42.85;;;17.35;;
41875;SDS011;27555;50.808;4.402;2022-12-10T02:34:43;44.72;;;18.98;;
41875;SDS011;27555;50.808;4.402;2022-12-10T02:37:46;42.80;;;18.65;;
41875;SDS011;27555;50.808;4.402;2022-12-10T02:40:12;48.75;;;19.98;;
41875;SDS011;27555;50.808;4.402;2022-12-10T02:42:42;47.47;;;19.77;;
41875;SDS011;27555;50.808;4.402;2022-12-10T02:45:11;54.28;;;19.55;;
41875;SDS011;27555;50.808;4.402;2022-12-10T02:47:42;52.47;;;21.58;;
41875;SDS011;27555;50.808;4.402;2022-12-10T02:50:10;58.92;;;22.42;;
41875;SDS011;27555;50.808;4.402;2022-12-10T02:52:44;53.17;;;21.50;;
41875;SDS011;27555;50.808;4.402;2022-12-10T02:55:11;56.50;;;22.58;;
41875;SDS011;27555;50.808;4.402;2022-12-10T03:00:34;55.90;;;20.42;;
41875;SDS011;27555;50.808;4.402;2022-12-10T03:03:32;61.75;;;20.95;;
41875;SDS011;27555;50.808;4.402;2022-12-10T03:11:58;60.05;;;22.98;;
41875;SDS011;27555;50.808;4.402;2022-12-10T03:14:28;59.72;;;21.75;;
41875;SDS011;27555;50.808;4.402;2022-12-10T03:16:57;62.13;;;24.75;;
41875;SDS011;27555;50.808;4.402;2022-12-10T03:19:47;56.78;;;23.15;;
41875;SDS011;27555;50.808;4.402;2022-12-10T03:22:14;63.33;;;24.13;;
41875;SDS011;27555;50.808;4.402;2022-12-10T03:24:45;62.85;;;23.58;;
41875;SDS011;27555;50.808;4.402;2022-12-10T03:27:13;68.70;;;24.52;;
41875;SDS011;27555;50.808;4.402;2022-12-10T03:32:14;70.97;;;24.90;;
41875;SDS011;27555;50.808;4.402;2022-12-10T03:34:45;79.00;;;27.03;;
41875;SDS011;27555;50.808;4.402;2022-12-10T03:37:13;89.07;;;29.67;;
41875;SDS011;27555;50.808;4.402;2022-12-10T03:39:42;80.65;;;25.88;;
41875;SDS011;27555;50.808;4.402;2022-12-10T03:42:11;80.25;;;28.20;;
41875;SDS011;27555;50.808;4.402;2022-12-10T03:44:40;78.65;;;27.30;;
41875;SDS011;27555;50.808;4.402;2022-12-10T03:47:07;84.97;;;29.33;;
41875;SDS011;27555;50.808;4.402;2022-12-10T03:49:40;95.53;;;31.50;;
41875;SDS011;27555;50.808;4.402;2022-12-10T03:52:09;89.90;;;32.60;;
41875;SDS011;27555;50.808;4.402;2022-12-10T03:54:40;85.28;;;30.38;;
41875;SDS011;27555;50.808;4.402;2022-12-10T03:57:06;93.95;;;30.08;;
41875;SDS011;27555;50.808;4.402;2022-12-10T03:59:35;91.03;;;29.92;;
41875;SDS011;27555;50.808;4.402;2022-12-10T04:02:10;90.43;;;32.22;;
41875;SDS011;27555;50.808;4.402;2022-12-10T04:04:37;91.43;;;32.40;;
41875;SDS011;27555;50.808;4.402;2022-12-10T04:07:03;103.28;;;30.92;;
41875;SDS011;27555;50.808;4.402;2022-12-10T04:09:30;100.22;;;33.03;;
41875;SDS011;27555;50.808;4.402;2022-12-10T04:11:57;88.10;;;31.05;;
41875;SDS011;27555;50.808;4.402;2022-12-10T04:14:25;91.05;;;31.65;;
41875;SDS011;27555;50.808;4.402;2022-12-10T04:17:13;95.75;;;30.00;;
41875;SDS011;27555;50.808;4.402;2022-12-10T04:19:39;95.22;;;30.10;;
41875;SDS011;27555;50.808;4.402;2022-12-10T04:22:09;86.32;;;29.88;;
41875;SDS011;27555;50.808;4.402;2022-12-10T04:25:02;85.40;;;28.83;;
41875;SDS011;27555;50.808;4.402;2022-12-10T04:27:47;91.03;;;28.35;;
41875;SDS011;27555;50.808;4.402;2022-12-10T04:30:13;91.13;;;29.92;;
41875;SDS011;27555;50.808;4.402;2022-12-10T04:32:44;92.78;;;29.60;;
41875;SDS011;27555;50.808;4.402;2022-12-10T04:35:09;102.35;;;31.63;;
41875;SDS011;27555;50.808;4.402;2022-12-10T04:37:35;94.50;;;31.00;;
41875;SDS011;27555;50.808;4.402;2022-12-10T04:40:08;96.55;;;30.08;;
41875;SDS011;27555;50.808;4.402;2022-12-10T04:42:41;84.97;;;29.00;;
41875;SDS011;27555;50.808;4.402;2022-12-10T04:45:09;95.72;;;30.23;;
41875;SDS011;27555;50.808;4.402;2022-12-10T04:47:35;99.40;;;28.60;;
41875;SDS011;27555;50.808;4.402;2022-12-10T04:50:01;95.22;;;28.83;;
41875;SDS011;27555;50.808;4.402;2022-12-10T04:52:27;85.10;;;29.98;;
41875;SDS011;27555;50.808;4.402;2022-12-10T04:54:53;88.75;;;27.33;;
41875;SDS011;27555;50.808;4.402;2022-12-10T04:57:21;82.47;;;25.27;;
41875;SDS011;27555;50.808;4.402;2022-12-10T04:59:51;77.20;;;24.65;;
41875;SDS011;27555;50.808;4.402;2022-12-10T05:02:20;92.15;;;24.27;;
41875;SDS011;27555;50.808;4.402;2022-12-10T05:04:49;107.72;;;25.85;;
41875;SDS011;27555;50.808;4.402;2022-12-10T05:07:24;107.88;;;26.80;;
41875;SDS011;27555;50.808;4.402;2022-12-10T05:09:51;100.80;;;26.30;;
41875;SDS011;27555;50.808;4.402;2022-12-10T05:12:19;91.13;;;26.08;;
41875;SDS011;27555;50.808;4.402;2022-12-10T05:14:50;79.88;;;25.67;;
41875;SDS011;27555;50.808;4.402;2022-12-10T05:17:16;83.40;;;24.67;;
41875;SDS011;27555;50.808;4.402;2022-12-10T05:19:45;85.95;;;26.60;;
41875;SDS011;27555;50.808;4.402;2022-12-10T05:22:13;83.25;;;25.30;;
41875;SDS011;27555;50.808;4.402;2022-12-10T05:25:07;67.80;;;21.60;;
41875;SDS011;27555;50.808;4.402;2022-12-10T05:27:41;75.53;;;22.55;;
41875;SDS011;27555;50.808;4.402;2022-12-10T05:30:07;113.88;;;23.52;;
41875;SDS011;27555;50.808;4.402;2022-12-10T05:32:34;93.90;;;22.85;;
41875;SDS011;27555;50.808;4.402;2022-12-10T05:35:00;76.40;;;22.58;;
41875;SDS011;27555;50.808;4.402;2022-12-10T05:37:26;74.20;;;22.10;;
41875;SDS011;27555;50.808;4.402;2022-12-10T05:39:52;76.65;;;22.48;;
41875;SDS011;27555;50.808;4.402;2022-12-10T05:42:18;82.40;;;24.00;;
41875;SDS011;27555;50.808;4.402;2022-12-10T05:44:43;87.35;;;24.45;;
41875;SDS011;27555;50.808;4.402;2022-12-10T05:47:09;90.60;;;24.42;;
41875;SDS011;27555;50.808;4.402;2022-12-10T05:49:34;76.18;;;23.55;;
41875;SDS011;27555;50.808;4.402;2022-12-10T05:52:00;81.53;;;25.45;;
41875;SDS011;27555;50.808;4.402;2022-12-10T05:54:26;77.55;;;24.58;;
41875;SDS011;27555;50.808;4.402;2022-12-10T05:56:54;94.47;;;24.70;;
41875;SDS011;27555;50.808;4.402;2022-12-10T05:59:19;89.90;;;25.80;;
41875;SDS011;27555;50.808;4.402;2022-12-10T06:01:45;125.07;;;26.15;;
41875;SDS011;27555;50.808;4.402;2022-12-10T06:04:11;118.07;;;24.85;;
41875;SDS011;27555;50.808;4.402;2022-12-10T06:06:38;100.43;;;26.65;;
41875;SDS011;27555;50.808;4.402;2022-12-10T06:09:05;104.20;;;26.13;;
41875;SDS011;27555;50.808;4.402;2022-12-10T06:14:01;176.05;;;26.02;;
41875;SDS011;27555;50.808;4.402;2022-12-10T06:16:28;109.00;;;23.92;;
41875;SDS011;27555;50.808;4.402;2022-12-10T06:18:54;167.45;;;24.42;;
41875;SDS011;27555;50.808;4.402;2022-12-10T06:21:21;82.50;;;23.38;;
41875;SDS011;27555;50.808;4.402;2022-12-10T06:23:49;96.93;;;23.45;;
41875;SDS011;27555;50.808;4.402;2022-12-10T06:26:19;136.02;;;24.80;;
41875;SDS011;27555;50.808;4.402;2022-12-10T06:28:46;108.57;;;25.77;;
41875;SDS011;27555;50.808;4.402;2022-12-10T06:31:12;79.10;;;22.00;;
41875;SDS011;27555;50.808;4.402;2022-12-10T06:33:38;103.40;;;24.27;;
41875;SDS011;27555;50.808;4.402;2022-12-10T06:36:05;110.20;;;22.63;;
41875;SDS011;27555;50.808;4.402;2022-12-10T06:38:33;76.72;;;23.40;;
41875;SDS011;27555;50.808;4.402;2022-12-10T06:41:00;68.22;;;19.63;;
41875;SDS011;27555;50.808;4.402;2022-12-10T06:43:29;104.95;;;21.30;;
41875;SDS011;27555;50.808;4.402;2022-12-10T06:45:55;61.42;;;20.42;;
41875;SDS011;27555;50.808;4.402;2022-12-10T06:48:21;73.97;;;19.25;;
41875;SDS011;27555;50.808;4.402;2022-12-10T06:50:46;110.30;;;20.15;;
41875;SDS011;27555;50.808;4.402;2022-12-10T06:53:12;73.18;;;19.00;;
41875;SDS011;27555;50.808;4.402;2022-12-10T06:55:38;69.88;;;18.95;;
41875;SDS011;27555;50.808;4.402;2022-12-10T06:58:03;55.40;;;18.20;;
41875;SDS011;27555;50.808;4.402;2022-12-10T07:00:31;90.63;;;18.85;;
41875;SDS011;27555;50.808;4.402;2022-12-10T07:02:57;85.93;;;18.35;;
41875;SDS011;27555;50.808;4.402;2022-12-10T07:05:23;90.95;;;19.67;;
41875;SDS011;27555;50.808;4.402;2022-12-10T07:07:49;68.88;;;17.58;;
41875;SDS011;27555;50.808;4.402;2022-12-10T07:10:17;71.57;;;17.02;;
41875;SDS011;27555;50.808;4.402;2022-12-10T07:12:43;191.68;;;21.02;;
41875;SDS011;27555;50.808;4.402;2022-12-10T07:15:08;82.53;;;19.15;;
41875;SDS011;27555;50.808;4.402;2022-12-10T07:17:36;61.53;;;18.63;;
41875;SDS011;27555;50.808;4.402;2022-12-10T07:20:01;65.07;;;18.55;;
41875;SDS011;27555;50.808;4.402;2022-12-10T07:22:27;74.03;;;18.92;;
41875;SDS011;27555;50.808;4.402;2022-12-10T07:24:53;106.72;;;18.02;;
41875;SDS011;27555;50.808;4.402;2022-12-10T07:27:19;60.13;;;18.48;;
41875;SDS011;27555;50.808;4.402;2022-12-10T07:29:44;64.78;;;18.15;;
41875;SDS011;27555;50.808;4.402;2022-12-10T07:32:10;90.35;;;18.15;;
41875;SDS011;27555;50.808;4.402;2022-12-10T07:34:36;89.65;;;20.00;;
41875;SDS011;27555;50.808;4.402;2022-12-10T07:37:01;91.68;;;19.52;;
41875;SDS011;27555;50.808;4.402;2022-12-10T07:39:27;77.93;;;18.52;;
41875;SDS011;27555;50.808;4.402;2022-12-10T07:41:53;71.28;;;17.50;;
41875;SDS011;27555;50.808;4.402;2022-12-10T07:44:19;73.65;;;21.23;;
41875;SDS011;27555;50.808;4.402;2022-12-10T07:46:46;111.55;;;20.50;;
41875;SDS011;27555;50.808;4.402;2022-12-10T07:49:13;157.25;;;21.58;;
41875;SDS011;27555;50.808;4.402;2022-12-10T07:51:39;72.35;;;19.05;;
41875;SDS011;27555;50.808;4.402;2022-12-10T07:54:08;78.68;;;20.90;;
41875;SDS011;27555;50.808;4.402;2022-12-10T07:56:33;89.88;;;21.15;;
41875;SDS011;27555;50.808;4.402;2022-12-10T07:58:59;101.88;;;20.80;;
41875;SDS011;27555;50.808;4.402;2022-12-10T08:01:25;96.60;;;20.85;;
41875;SDS011;27555;50.808;4.402;2022-12-10T08:03:52;67.28;;;19.40;;
41875;SDS011;27555;50.808;4.402;2022-12-10T08:06:19;75.20;;;22.15;;
41875;SDS011;27555;50.808;4.402;2022-12-10T08:08:46;142.65;;;23.25;;
41875;SDS011;27555;50.808;4.402;2022-12-10T08:11:13;96.45;;;22.92;;
41875;SDS011;27555;50.808;4.402;2022-12-10T08:13:40;71.32;;;21.10;;
41875;SDS011;27555;50.808;4.402;2022-12-10T08:16:11;130.07;;;21.92;;
41875;SDS011;27555;50.808;4.402;2022-12-10T08:18:36;94.95;;;23.17;;
41875;SDS011;27555;50.808;4.402;2022-12-10T08:21:03;88.38;;;20.90;;
41875;SDS011;27555;50.808;4.402;2022-12-10T08:23:34;105.68;;;18.60;;
41875;SDS011;27555;50.808;4.402;2022-12-10T08:26:04;80.32;;;20.67;;
41875;SDS011;27555;50.808;4.402;2022-12-10T08:28:31;77.72;;;20.13;;
41875;SDS011;27555;50.808;4.402;2022-12-10T08:30:57;81.35;;;20.65;;
41875;SDS011;27555;50.808;4.402;2022-12-10T08:33:22;112.13;;;22.42;;
41875;SDS011;27555;50.808;4.402;2022-12-10T08:35:48;76.93;;;20.80;;
41875;SDS011;27555;50.808;4.402;2022-12-10T08:38:13;83.78;;;21.40;;
41875;SDS011;27555;50.808;4.402;2022-12-10T08:40:40;93.78;;;24.48;;
41875;SDS011;27555;50.808;4.402;2022-12-10T08:43:06;95.55;;;22.33;;
41875;SDS011;27555;50.808;4.402;2022-12-10T08:45:32;111.90;;;21.15;;
41875;SDS011;27555;50.808;4.402;2022-12-10T08:47:59;74.32;;;20.10;;
41875;SDS011;27555;50.808;4.402;2022-12-10T08:50:25;80.88;;;19.13;;
41875;SDS011;27555;50.808;4.402;2022-12-10T08:52:51;76.38;;;19.45;;
41875;SDS011;27555;50.808;4.402;2022-12-10T08:55:17;71.80;;;21.67;;
41875;SDS011;27555;50.808;4.402;2022-12-10T08:57:42;75.90;;;22.27;;
41875;SDS011;27555;50.808;4.402;2022-12-10T09:00:08;80.15;;;22.75;;
41875;SDS011;27555;50.808;4.402;2022-12-10T09:02:34;78.60;;;24.33;;
41875;SDS011;27555;50.808;4.402;2022-12-10T09:05:01;69.63;;;22.10;;
41875;SDS011;27555;50.808;4.402;2022-12-10T09:07:27;113.18;;;24.13;;
41875;SDS011;27555;50.808;4.402;2022-12-10T09:09:56;93.18;;;22.90;;
41875;SDS011;27555;50.808;4.402;2022-12-10T09:12:23;72.32;;;21.00;;
41875;SDS011;27555;50.808;4.402;2022-12-10T09:14:50;76.10;;;21.95;;
41875;SDS011;27555;50.808;4.402;2022-12-10T09:17:16;76.07;;;20.52;;
41875;SDS011;27555;50.808;4.402;2022-12-10T09:19:42;56.97;;;20.02;;
41875;SDS011;27555;50.808;4.402;2022-12-10T09:22:07;72.47;;;22.08;;
41875;SDS011;27555;50.808;4.402;2022-12-10T09:24:33;58.00;;;20.73;;
41875;SDS011;27555;50.808;4.402;2022-12-10T09:27:00;67.10;;;20.33;;
41875;SDS011;27555;50.808;4.402;2022-12-10T09:29:26;64.63;;;18.98;;
41875;SDS011;27555;50.808;4.402;2022-12-10T09:31:51;61.40;;;21.45;;
41875;SDS011;27555;50.808;4.402;2022-12-10T09:34:17;62.97;;;20.25;;
41875;SDS011;27555;50.808;4.402;2022-12-10T09:36:43;67.45;;;21.83;;
41875;SDS011;27555;50.808;4.402;2022-12-10T09:39:09;64.60;;;22.90;;
41875;SDS011;27555;50.808;4.402;2022-12-10T09:41:48;57.15;;;20.30;;
41875;SDS011;27555;50.808;4.402;2022-12-10T09:47:11;56.63;;;20.58;;
41875;SDS011;27555;50.808;4.402;2022-12-10T09:52:18;69.07;;;19.20;;
41875;SDS011;27555;50.808;4.402;2022-12-10T09:54:48;55.92;;;19.25;;
41875;SDS011;27555;50.808;4.402;2022-12-10T09:57:18;62.90;;;21.67;;
41875;SDS011;27555;50.808;4.402;2022-12-10T09:59:46;56.60;;;18.33;;
41875;SDS011;27555;50.808;4.402;2022-12-10T10:04:49;69.13;;;21.27;;
41875;SDS011;27555;50.808;4.402;2022-12-10T10:07:26;58.42;;;19.17;;
41875;SDS011;27555;50.808;4.402;2022-12-10T10:10:01;52.63;;;17.80;;
41875;SDS011;27555;50.808;4.402;2022-12-10T10:12:33;53.65;;;18.83;;
41875;SDS011;27555;50.808;4.402;2022-12-10T10:14:59;57.80;;;18.42;;
41875;SDS011;27555;50.808;4.402;2022-12-10T10:17:41;66.45;;;17.95;;
41875;SDS011;27555;50.808;4.402;2022-12-10T10:20:11;53.25;;;17.70;;
41875;SDS011;27555;50.808;4.402;2022-12-10T10:22:37;58.03;;;17.25;;
41875;SDS011;27555;50.808;4.402;2022-12-10T10:25:04;51.72;;;17.77;;
41875;SDS011;27555;50.808;4.402;2022-12-10T10:27:37;53.55;;;17.50;;
41875;SDS011;27555;50.808;4.402;2022-12-10T10:30:03;57.53;;;18.00;;
41875;SDS011;27555;50.808;4.402;2022-12-10T10:35:01;63.05;;;18.65;;
41875;SDS011;27555;50.808;4.402;2022-12-10T10:39:55;63.95;;;19.63;;
41875;SDS011;27555;50.808;4.402;2022-12-10T10:42:27;59.53;;;19.50;;
41875;SDS011;27555;50.808;4.402;2022-12-10T10:45:51;56.88;;;18.35;;
41875;SDS011;27555;50.808;4.402;2022-12-10T10:50:45;57.63;;;19.40;;
41875;SDS011;27555;50.808;4.402;2022-12-10T11:01:42;51.78;;;17.35;;
41875;SDS011;27555;50.808;4.402;2022-12-10T11:04:11;59.03;;;19.20;;
41875;SDS011;27555;50.808;4.402;2022-12-10T11:06:41;66.18;;;18.80;;
41875;SDS011;27555;50.808;4.402;2022-12-10T11:09:20;57.75;;;19.50;;
41875;SDS011;27555;50.808;4.402;2022-12-10T11:14:23;57.92;;;18.40;;
41875;SDS011;27555;50.808;4.402;2022-12-10T11:17:02;56.92;;;17.95;;
41875;SDS011;27555;50.808;4.402;2022-12-10T11:19:42;59.67;;;18.48;;
41875;SDS011;27555;50.808;4.402;2022-12-10T11:22:21;51.63;;;18.88;;
41875;SDS011;27555;50.808;4.402;2022-12-10T11:24:49;63.55;;;19.67;;
41875;SDS011;27555;50.808;4.402;2022-12-10T11:27:38;58.63;;;20.02;;
41875;SDS011;27555;50.808;4.402;2022-12-10T11:30:12;57.40;;;17.92;;
41875;SDS011;27555;50.808;4.402;2022-12-10T11:40:55;55.92;;;18.48;;
41875;SDS011;27555;50.808;4.402;2022-12-10T11:43:44;58.05;;;18.75;;
41875;SDS011;27555;50.808;4.402;2022-12-10T11:51:50;55.92;;;18.50;;
41875;SDS011;27555;50.808;4.402;2022-12-10T11:56:49;58.58;;;20.05;;
41875;SDS011;27555;50.808;4.402;2022-12-10T11:59:31;57.25;;;21.27;;
41875;SDS011;27555;50.808;4.402;2022-12-10T12:13:08;53.40;;;18.45;;
41875;SDS011;27555;50.808;4.402;2022-12-10T12:15:50;57.47;;;19.08;;
41875;SDS011;27555;50.808;4.402;2022-12-10T12:21:00;58.20;;;19.10;;
41875;SDS011;27555;50.808;4.402;2022-12-10T12:23:34;62.55;;;18.83;;
41875;SDS011;27555;50.808;4.402;2022-12-10T12:26:10;57.88;;;18.80;;
41875;SDS011;27555;50.808;4.402;2022-12-10T12:28:43;62.55;;;20.48;;
41875;SDS011;27555;50.808;4.402;2022-12-10T12:31:29;64.75;;;21.27;;
41875;SDS011;27555;50.808;4.402;2022-12-10T12:34:05;61.20;;;19.20;;
41875;SDS011;27555;50.808;4.402;2022-12-10T12:36:37;60.55;;;19.98;;
41875;SDS011;27555;50.808;4.402;2022-12-10T12:44:28;68.82;;;20.10;;
41875;SDS011;27555;50.808;4.402;2022-12-10T12:47:19;56.75;;;18.20;;
41875;SDS011;27555;50.808;4.402;2022-12-10T12:49:56;55.15;;;19.13;;
41875;SDS011;27555;50.808;4.402;2022-12-10T12:52:43;65.97;;;19.95;;
41875;SDS011;27555;50.808;4.402;2022-12-10T12:55:19;49.58;;;17.35;;
41875;SDS011;27555;50.808;4.402;2022-12-10T12:58:10;55.45;;;17.85;;
41875;SDS011;27555;50.808;4.402;2022-12-10T13:00:52;54.03;;;18.02;;
41875;SDS011;27555;50.808;4.402;2022-12-10T13:06:25;53.05;;;15.90;;
41875;SDS011;27555;50.808;4.402;2022-12-10T13:11:38;51.25;;;16.63;;
41875;SDS011;27555;50.808;4.402;2022-12-10T13:19:50;50.15;;;17.65;;
41875;SDS011;27555;50.808;4.402;2022-12-10T13:22:54;48.45;;;16.60;;
41875;SDS011;27555;50.808;4.402;2022-12-10T13:25:21;57.03;;;17.05;;
41875;SDS011;27555;50.808;4.402;2022-12-10T13:28:15;57.72;;;18.08;;
41875;SDS011;27555;50.808;4.402;2022-12-10T13:39:12;53.20;;;16.63;;
41875;SDS011;27555;50.808;4.402;2022-12-10T13:53:01;41.33;;;15.02;;
41875;SDS011;27555;50.808;4.402;2022-12-10T13:55:39;43.22;;;13.57;;
41875;SDS011;27555;50.808;4.402;2022-12-10T14:06:40;44.72;;;16.10;;
41875;SDS011;27555;50.808;4.402;2022-12-10T14:09:15;52.50;;;17.00;;
41875;SDS011;27555;50.808;4.402;2022-12-10T14:12:07;44.58;;;13.90;;
41875;SDS011;27555;50.808;4.402;2022-12-10T14:14:39;46.33;;;15.07;;
41875;SDS011;27555;50.808;4.402;2022-12-10T14:19:45;50.38;;;15.85;;
41875;SDS011;27555;50.808;4.402;2022-12-10T14:22:16;45.15;;;15.05;;
41875;SDS011;27555;50.808;4.402;2022-12-10T14:24:54;46.90;;;14.70;;
41875;SDS011;27555;50.808;4.402;2022-12-10T14:27:26;48.03;;;15.65;;
41875;SDS011;27555;50.808;4.402;2022-12-10T14:29:57;51.25;;;15.68;;
41875;SDS011;27555;50.808;4.402;2022-12-10T14:32:34;53.38;;;17.08;;
41875;SDS011;27555;50.808;4.402;2022-12-10T14:35:03;43.03;;;14.50;;
41875;SDS011;27555;50.808;4.402;2022-12-10T14:37:31;38.00;;;14.75;;
41875;SDS011;27555;50.808;4.402;2022-12-10T14:40:00;47.33;;;14.27;;
41875;SDS011;27555;50.808;4.402;2022-12-10T14:42:28;40.85;;;14.75;;
41875;SDS011;27555;50.808;4.402;2022-12-10T14:44:56;48.28;;;15.52;;
41875;SDS011;27555;50.808;4.402;2022-12-10T14:47:24;50.78;;;16.60;;
41875;SDS011;27555;50.808;4.402;2022-12-10T14:49:51;46.35;;;14.70;;
41875;SDS011;27555;50.808;4.402;2022-12-10T14:52:20;52.75;;;15.18;;
41875;SDS011;27555;50.808;4.402;2022-12-10T14:54:47;44.40;;;13.88;;
41875;SDS011;27555;50.808;4.402;2022-12-10T14:57:15;45.83;;;13.70;;
41875;SDS011;27555;50.808;4.402;2022-12-10T14:59:44;40.40;;;14.55;;
41875;SDS011;27555;50.808;4.402;2022-12-10T15:02:42;48.33;;;15.63;;
41875;SDS011;27555;50.808;4.402;2022-12-10T15:08:01;47.85;;;14.50;;
41875;SDS011;27555;50.808;4.402;2022-12-10T15:10:40;43.60;;;15.50;;
41875;SDS011;27555;50.808;4.402;2022-12-10T15:13:17;44.70;;;14.15;;
41875;SDS011;27555;50.808;4.402;2022-12-10T15:15:52;49.05;;;15.10;;
41875;SDS011;27555;50.808;4.402;2022-12-10T15:18:19;46.25;;;16.25;;
41875;SDS011;27555;50.808;4.402;2022-12-10T15:23:49;40.47;;;15.32;;
41875;SDS011;27555;50.808;4.402;2022-12-10T15:26:19;45.97;;;17.27;;
41875;SDS011;27555;50.808;4.402;2022-12-10T15:28:52;58.95;;;16.23;;
41875;SDS011;27555;50.808;4.402;2022-12-10T15:31:46;51.15;;;16.35;;
41875;SDS011;27555;50.808;4.402;2022-12-10T15:34:12;56.00;;;19.83;;
41875;SDS011;27555;50.808;4.402;2022-12-10T15:36:40;50.72;;;16.08;;
41875;SDS011;27555;50.808;4.402;2022-12-10T15:41:44;46.78;;;16.38;;
41875;SDS011;27555;50.808;4.402;2022-12-10T15:49:41;43.13;;;15.43;;
41875;SDS011;27555;50.808;4.402;2022-12-10T15:52:10;45.13;;;14.95;;
41875;SDS011;27555;50.808;4.402;2022-12-10T15:54:38;54.33;;;16.73;;
41875;SDS011;27555;50.808;4.402;2022-12-10T15:57:15;46.20;;;15.98;;
41875;SDS011;27555;50.808;4.402;2022-12-10T15:59:47;50.15;;;16.25;;
41875;SDS011;27555;50.808;4.402;2022-12-10T16:04:58;46.47;;;16.02;;
41875;SDS011;27555;50.808;4.402;2022-12-10T16:07:23;48.63;;;15.98;;
41875;SDS011;27555;50.808;4.402;2022-12-10T16:09:49;44.85;;;15.40;;
41875;SDS011;27555;50.808;4.402;2022-12-10T16:12:15;46.10;;;16.23;;
41875;SDS011;27555;50.808;4.402;2022-12-10T16:14:44;45.55;;;17.08;;
41875;SDS011;27555;50.808;4.402;2022-12-10T16:17:13;48.50;;;16.73;;
41875;SDS011;27555;50.808;4.402;2022-12-10T16:19:39;46.88;;;16.00;;
41875;SDS011;27555;50.808;4.402;2022-12-10T16:22:06;58.40;;;18.67;;
41875;SDS011;27555;50.808;4.402;2022-12-10T16:24:31;53.00;;;16.98;;
41875;SDS011;27555;50.808;4.402;2022-12-10T16:26:57;51.85;;;16.80;;
41875;SDS011;27555;50.808;4.402;2022-12-10T16:29:23;43.42;;;16.17;;
41875;SDS011;27555;50.808;4.402;2022-12-10T16:31:48;48.65;;;17.48;;
41875;SDS011;27555;50.808;4.402;2022-12-10T16:34:14;49.95;;;16.58;;
41875;SDS011;27555;50.808;4.402;2022-12-10T16:36:40;49.60;;;17.13;;
41875;SDS011;27555;50.808;4.402;2022-12-10T16:39:06;50.90;;;18.10;;
41875;SDS011;27555;50.808;4.402;2022-12-10T16:41:32;45.90;;;17.08;;
41875;SDS011;27555;50.808;4.402;2022-12-10T16:43:59;48.55;;;17.60;;
41875;SDS011;27555;50.808;4.402;2022-12-10T16:46:25;45.00;;;18.73;;
41875;SDS011;27555;50.808;4.402;2022-12-10T16:48:50;56.30;;;17.40;;
41875;SDS011;27555;50.808;4.402;2022-12-10T16:51:28;52.75;;;18.92;;
41875;SDS011;27555;50.808;4.402;2022-12-10T16:53:55;50.95;;;18.75;;
41875;SDS011;27555;50.808;4.402;2022-12-10T16:56:22;54.47;;;19.48;;
41875;SDS011;27555;50.808;4.402;2022-12-10T16:58:47;45.63;;;16.38;;
41875;SDS011;27555;50.808;4.402;2022-12-10T17:01:14;51.03;;;19.17;;
41875;SDS011;27555;50.808;4.402;2022-12-10T17:03:40;55.28;;;21.38;;
41875;SDS011;27555;50.808;4.402;2022-12-10T17:06:08;55.83;;;21.35;;
41875;SDS011;27555;50.808;4.402;2022-12-10T17:08:35;67.50;;;26.23;;
41875;SDS011;27555;50.808;4.402;2022-12-10T17:11:01;63.90;;;23.27;;